createdAt,value
2018-08-20T00:01:35.769Z,100343.88
2018-08-20T00:04:07.296Z,100336.53
2018-08-20T00:06:48.942Z,100337.61
2018-08-20T00:09:18.755Z,100332.59
2018-08-20T00:11:48.465Z,100328.70
2018-08-20T00:14:19.441Z,100318.72
2018-08-20T00:16:48.320Z,100325.82
2018-08-20T00:19:17.274Z,100319.20
2018-08-20T00:21:46.271Z,100315.95
2018-08-20T00:24:14.905Z,100327.75
2018-08-20T00:26:43.659Z,100334.73
2018-08-20T00:29:12.701Z,100332.20
2018-08-20T00:31:41.615Z,100319.32
2018-08-20T00:34:10.487Z,100319.72
2018-08-20T00:36:39.157Z,100318.03
2018-08-20T00:39:09.891Z,100322.20
2018-08-20T00:41:38.620Z,100331.11
2018-08-20T00:44:11.356Z,100327.26
2018-08-20T00:46:40.408Z,100330.77
2018-08-20T00:49:09.287Z,100330.77
2018-08-20T00:51:38.041Z,100337.88
2018-08-20T00:54:06.947Z,100333.45
2018-08-20T00:56:35.894Z,100317.80
2018-08-20T00:59:04.860Z,100321.89
2018-08-20T01:01:33.911Z,100315.66
2018-08-20T01:04:03.167Z,100324.45
2018-08-20T01:06:32.317Z,100315.78
2018-08-20T01:09:01.200Z,100314.94
2018-08-20T01:11:30.021Z,100307.75
2018-08-20T01:13:58.992Z,100307.48
2018-08-20T01:16:27.688Z,100307.84
2018-08-20T01:18:56.505Z,100308.69
2018-08-20T01:21:25.418Z,100309.31
2018-08-20T01:23:54.518Z,100305.10
2018-08-20T01:26:23.089Z,100307.15
2018-08-20T01:28:51.753Z,100309.67
2018-08-20T01:31:20.996Z,100300.05
2018-08-20T01:33:49.857Z,100299.56
2018-08-20T01:36:18.564Z,100299.69
2018-08-20T01:38:47.311Z,100288.53
2018-08-20T01:41:16.058Z,100292.02
2018-08-20T01:43:45.141Z,100298.16
2018-08-20T01:46:14.009Z,100302.23
2018-08-20T01:48:42.741Z,100300.91
2018-08-20T01:51:12.674Z,100298.75
2018-08-20T01:53:41.414Z,100299.83
2018-08-20T01:56:10.442Z,100295.02
2018-08-20T01:58:39.576Z,100298.02
2018-08-20T02:01:08.534Z,100296.01
2018-08-20T02:03:37.450Z,100299.37
2018-08-20T02:06:06.393Z,100297.47
2018-08-20T02:08:35.119Z,100290.83
2018-08-20T02:11:03.828Z,100290.83
2018-08-20T02:13:32.792Z,100285.54
2018-08-20T02:16:01.743Z,100285.30
2018-08-20T02:18:30.537Z,100283.98
2018-08-20T02:20:59.675Z,100289.75
2018-08-20T02:23:28.570Z,100298.29
2018-08-20T02:25:57.313Z,100296.84
2018-08-20T02:28:26.252Z,100298.05
2018-08-20T02:30:55.487Z,100298.31
2018-08-20T02:33:24.300Z,100301.55
2018-08-20T02:35:52.920Z,100306.25
2018-08-20T02:38:21.701Z,100309.85
2018-08-20T02:40:50.669Z,100300.95
2018-08-20T02:43:19.304Z,100296.74
2018-08-20T02:45:48.136Z,100299.62
2018-08-20T02:48:16.835Z,100265.89
2018-08-20T02:50:45.525Z,100302.75
2018-08-20T02:53:14.723Z,100301.57
2018-08-20T02:55:43.511Z,100291.80
2018-08-20T02:58:12.529Z,100294.12
2018-08-20T03:00:41.869Z,100296.77
2018-08-20T03:03:10.510Z,100290.50
2018-08-20T03:05:39.195Z,100278.50
2018-08-20T03:08:08.138Z,100290.62
2018-08-20T03:10:36.736Z,100301.70
2018-08-20T03:13:05.776Z,100294.96
2018-08-20T03:15:34.637Z,100285.83
2018-08-20T03:18:03.831Z,100292.80
2018-08-20T03:20:32.745Z,100286.07
2018-08-20T03:23:01.496Z,100286.07
2018-08-20T03:25:30.270Z,100290.77
2018-08-20T03:27:59.139Z,100295.67
2018-08-20T03:30:27.912Z,100288.70
2018-08-20T03:32:56.757Z,100290.38
2018-08-20T03:35:25.560Z,100288.20
2018-08-20T03:37:54.203Z,100286.88
2018-08-20T03:40:22.799Z,100290.25
2018-08-20T03:42:51.542Z,100298.06
2018-08-20T03:45:20.277Z,100287.37
2018-08-20T03:47:49.128Z,100288.33
2018-08-20T03:50:17.896Z,100289.05
2018-08-20T03:52:46.912Z,100289.05
2018-08-20T03:55:15.731Z,100290.47
2018-08-20T03:57:44.799Z,100292.04
2018-08-20T04:00:24.032Z,100277.48
2018-08-20T04:02:53.244Z,100284.95
2018-08-20T04:05:22.663Z,100287.57
2018-08-20T04:07:51.542Z,100284.80
2018-08-20T04:10:20.526Z,100278.04
2018-08-20T04:12:49.352Z,100283.21
2018-08-20T04:15:18.216Z,100284.03
2018-08-20T04:17:46.977Z,100288.00
2018-08-20T04:20:15.739Z,100283.79
2018-08-20T04:22:44.448Z,100283.88
2018-08-20T04:25:13.376Z,100271.61
2018-08-20T04:27:42.361Z,100282.92
2018-08-20T04:30:11.194Z,100270.89
2018-08-20T04:32:40.303Z,100279.31
2018-08-20T04:35:09.193Z,100275.80
2018-08-20T04:37:37.926Z,100274.47
2018-08-20T04:40:07.274Z,100273.23
2018-08-20T04:42:36.407Z,100275.41
2018-08-20T04:45:05.525Z,100272.48
2018-08-20T04:47:34.840Z,100271.03
2018-08-20T04:50:04.328Z,100266.74
2018-08-20T04:52:32.915Z,100266.03
2018-08-20T04:55:01.924Z,100260.83
2018-08-20T04:57:30.757Z,100258.69
2018-08-20T04:59:59.500Z,100265.28
2018-08-20T05:02:28.552Z,100271.67
2018-08-20T05:04:57.356Z,100276.77
2018-08-20T05:07:26.278Z,100268.61
2018-08-20T05:09:55.314Z,100279.23
2018-08-20T05:12:23.993Z,100276.48
2018-08-20T05:14:52.888Z,100275.95
2018-08-20T05:17:21.668Z,100276.73
2018-08-20T05:19:50.415Z,100276.94
2018-08-20T05:22:19.396Z,100280.84
2018-08-20T05:24:48.189Z,100276.50
2018-08-20T05:27:17.102Z,100281.20
2018-08-20T05:29:45.861Z,100285.50
2018-08-20T05:32:14.520Z,100280.87
2018-08-20T05:34:43.294Z,100278.84
2018-08-20T05:37:12.021Z,100277.34
2018-08-20T05:39:40.889Z,100277.84
2018-08-20T05:42:09.739Z,100273.30
2018-08-20T05:44:38.624Z,100279.13
2018-08-20T05:47:07.419Z,100278.93
2018-08-20T05:49:36.120Z,100276.44
2018-08-20T05:52:05.041Z,100282.94
2018-08-20T05:54:33.852Z,100285.63
2018-08-20T05:57:02.739Z,100285.18
2018-08-20T05:59:31.441Z,100284.41
2018-08-20T06:02:00.139Z,100291.71
2018-08-20T06:04:29.066Z,100285.45
2018-08-20T06:06:57.824Z,100285.88
2018-08-20T06:09:26.673Z,100282.25
2018-08-20T06:11:55.322Z,100286.47
2018-08-20T06:14:24.106Z,100285.18
2018-08-20T06:16:52.902Z,100283.59
2018-08-20T06:19:21.787Z,100289.29
2018-08-20T06:21:50.514Z,100293.71
2018-08-20T06:24:19.881Z,100289.70
2018-08-20T06:26:48.634Z,100297.69
2018-08-20T06:29:17.585Z,100299.36
2018-08-20T06:31:46.417Z,100281.53
2018-08-20T06:34:15.288Z,100287.77
2018-08-20T06:36:44.248Z,100293.70
2018-08-20T06:39:12.937Z,100295.16
2018-08-20T06:41:41.810Z,100300.45
2018-08-20T06:44:10.687Z,100295.59
2018-08-20T06:46:39.462Z,100296.86
2018-08-20T06:49:09.458Z,100296.52
2018-08-20T06:51:38.628Z,100290.23
2018-08-20T06:54:07.743Z,100300.64
2018-08-20T06:56:36.651Z,100293.72
2018-08-20T06:59:05.400Z,100293.58
2018-08-20T07:01:34.212Z,100297.33
2018-08-20T07:04:03.205Z,100295.55
2018-08-20T07:06:32.009Z,100288.09
2018-08-20T07:09:01.300Z,100283.70
2018-08-20T07:11:30.063Z,100284.76
2018-08-20T07:13:59.111Z,100295.80
2018-08-20T07:16:27.867Z,100284.58
2018-08-20T07:18:56.678Z,100300.23
2018-08-20T07:21:25.330Z,100289.13
2018-08-20T07:23:54.124Z,100292.17
2018-08-20T07:26:23.056Z,100286.45
2018-08-20T07:28:51.905Z,100281.66
2018-08-20T07:31:20.918Z,100274.64
2018-08-20T07:33:49.927Z,100284.84
2018-08-20T07:36:18.667Z,100292.56
2018-08-20T07:38:47.468Z,100295.55
2018-08-20T07:41:16.259Z,100291.09
2018-08-20T07:43:45.113Z,100296.89
2018-08-20T07:46:14.011Z,100293.19
2018-08-20T07:48:42.816Z,100304.33
2018-08-20T07:51:11.642Z,100302.84
2018-08-20T07:53:40.761Z,100300.80
2018-08-20T07:56:09.459Z,100296.80
2018-08-20T07:58:38.254Z,100300.73
2018-08-20T08:01:06.961Z,100304.15
2018-08-20T08:03:35.974Z,100305.49
2018-08-20T08:06:05.663Z,100300.71
2018-08-20T08:08:34.945Z,100297.50
2018-08-20T08:11:03.896Z,100307.24
2018-08-20T08:13:32.662Z,100303.05
2018-08-20T08:16:01.463Z,100301.64
2018-08-20T08:18:30.258Z,100299.20
2018-08-20T08:20:59.636Z,100295.58
2018-08-20T08:23:28.470Z,100310.78
2018-08-20T08:25:57.457Z,100296.51
2018-08-20T08:28:26.386Z,100309.95
2018-08-20T08:30:55.434Z,100306.69
2018-08-20T08:33:24.263Z,100299.48
2018-08-20T08:35:53.117Z,100305.61
2018-08-20T08:38:21.997Z,100312.23
2018-08-20T08:40:50.857Z,100318.92
2018-08-20T08:43:19.694Z,100322.20
2018-08-20T08:45:48.533Z,100329.61
2018-08-20T08:48:17.379Z,100332.92
2018-08-20T08:50:46.106Z,100322.34
2018-08-20T08:53:14.738Z,100324.41
2018-08-20T08:55:43.389Z,100327.92
2018-08-20T08:58:12.096Z,100317.36
2018-08-20T09:00:41.241Z,100331.61
2018-08-20T09:03:10.018Z,100334.98
2018-08-20T09:05:38.960Z,100336.33
2018-08-20T09:08:07.967Z,100332.37
2018-08-20T09:10:36.793Z,100328.95
2018-08-20T09:13:05.485Z,100326.67
2018-08-20T09:15:34.594Z,100297.59
2018-08-20T09:18:03.371Z,100333.25
2018-08-20T09:20:32.291Z,100332.89
2018-08-20T09:23:01.082Z,100329.17
2018-08-20T09:25:30.134Z,100340.86
2018-08-20T09:27:59.142Z,100327.28
2018-08-20T09:30:28.066Z,100323.97
2018-08-20T09:32:57.047Z,100329.03
2018-08-20T09:35:25.832Z,100329.88
2018-08-20T09:37:54.893Z,100329.54
2018-08-20T09:40:23.641Z,100333.25
2018-08-20T09:42:52.710Z,100323.77
2018-08-20T09:45:21.779Z,100332.77
2018-08-20T09:47:50.592Z,100329.66
2018-08-20T09:50:19.424Z,100324.31
2018-08-20T09:52:48.076Z,100334.45
2018-08-20T09:55:16.832Z,100330.40
2018-08-20T09:57:45.583Z,100335.08
2018-08-20T10:00:21.558Z,100334.23
2018-08-20T10:02:51.308Z,100337.76
2018-08-20T10:05:20.491Z,100345.07
2018-08-20T10:07:49.789Z,100336.80
2018-08-20T10:10:18.719Z,100340.09
2018-08-20T10:12:47.673Z,100343.62
2018-08-20T10:15:16.397Z,100332.93
2018-08-20T10:17:45.503Z,100334.06
2018-08-20T10:20:15.402Z,100348.33
2018-08-20T10:22:44.530Z,100344.22
2018-08-20T10:25:13.540Z,100346.55
2018-08-20T10:27:42.326Z,100338.78
2018-08-20T10:30:12.048Z,100341.20
2018-08-20T10:32:41.439Z,100342.23
2018-08-20T10:35:10.518Z,100340.00
2018-08-20T10:37:39.391Z,100342.13
2018-08-20T10:40:09.076Z,100335.64
2018-08-20T10:42:38.649Z,100335.58
2018-08-20T10:45:20.837Z,100336.92
2018-08-20T10:47:50.323Z,100343.58
2018-08-20T10:50:20.495Z,100339.28
2018-08-20T10:52:50.605Z,100342.02
2018-08-20T10:55:19.282Z,100337.38
2018-08-20T10:57:48.037Z,100344.30
2018-08-20T11:00:17.111Z,100343.33
2018-08-20T11:02:46.062Z,100346.63
2018-08-20T11:05:16.766Z,100350.41
2018-08-20T11:07:45.623Z,100345.01
2018-08-20T11:10:14.465Z,100345.95
2018-08-20T11:12:43.157Z,100346.21
2018-08-20T11:15:12.384Z,100347.31
2018-08-20T11:17:41.106Z,100341.20
2018-08-20T11:20:12.434Z,100345.49
2018-08-20T11:22:41.770Z,100348.67
2018-08-20T11:25:11.489Z,100345.50
2018-08-20T11:27:40.826Z,100351.75
2018-08-20T11:30:11.298Z,100347.45
2018-08-20T11:32:40.289Z,100345.17
2018-08-20T11:35:09.906Z,100329.39
2018-08-20T11:37:38.869Z,100312.11
2018-08-20T11:40:08.309Z,100338.73
2018-08-20T11:42:37.287Z,100340.72
2018-08-20T11:45:07.439Z,100342.84
2018-08-20T11:47:36.538Z,100343.20
2018-08-20T11:50:05.466Z,100345.05
2018-08-20T11:52:34.250Z,100337.91
2018-08-20T11:55:03.033Z,100333.08
2018-08-20T11:57:32.047Z,100326.27
2018-08-20T12:00:01.256Z,100325.30
2018-08-20T12:02:31.142Z,100328.23
2018-08-20T12:05:00.064Z,100331.40
2018-08-20T12:07:28.829Z,100321.51
2018-08-20T12:09:57.782Z,100331.05
2018-08-20T12:12:26.689Z,100337.14
2018-08-20T12:14:55.744Z,100331.63
2018-08-20T12:17:24.577Z,100333.33
2018-08-20T12:19:53.271Z,100340.81
2018-08-20T12:22:21.998Z,100335.31
2018-08-20T12:24:50.860Z,100338.66
2018-08-20T12:27:19.615Z,100337.57
2018-08-20T12:29:48.491Z,100333.91
2018-08-20T12:32:17.224Z,100333.91
2018-08-20T12:34:46.138Z,100327.45
2018-08-20T12:37:15.168Z,100340.98
2018-08-20T12:39:43.954Z,100331.95
2018-08-20T12:42:12.825Z,100330.12
2018-08-20T12:44:41.781Z,100327.83
2018-08-20T12:47:10.562Z,100332.56
2018-08-20T12:49:39.504Z,100323.27
2018-08-20T12:52:08.687Z,100323.14
2018-08-20T12:54:37.820Z,100333.58
2018-08-20T12:57:06.478Z,100325.23
2018-08-20T12:59:35.267Z,100338.56
2018-08-20T13:02:04.133Z,100331.83
2018-08-20T13:04:32.893Z,100332.88
2018-08-20T13:07:01.924Z,100335.15
2018-08-20T13:09:30.845Z,100340.27
2018-08-20T13:11:59.675Z,100330.09
2018-08-20T13:14:28.900Z,100334.63
2018-08-20T13:16:57.785Z,100338.08
2018-08-20T13:19:26.464Z,100343.84
2018-08-20T13:21:55.532Z,100341.43
2018-08-20T13:24:24.714Z,100338.75
2018-08-20T13:26:53.426Z,100343.11
2018-08-20T13:29:22.245Z,100339.52
2018-08-20T13:31:51.424Z,100343.43
2018-08-20T13:34:20.157Z,100339.45
2018-08-20T13:36:51.787Z,100335.25
2018-08-20T13:39:20.754Z,100340.44
2018-08-20T13:41:49.541Z,100333.72
2018-08-20T13:44:18.411Z,100329.40
2018-08-20T13:46:47.335Z,100327.48
2018-08-20T13:49:16.253Z,100333.88
2018-08-20T13:51:45.058Z,100332.48
2018-08-20T13:54:13.973Z,100330.85
2018-08-20T13:56:42.828Z,100337.33
2018-08-20T13:59:11.877Z,100331.62
2018-08-20T14:01:40.941Z,100328.35
2018-08-20T14:04:09.814Z,100325.91
2018-08-20T14:06:38.607Z,100315.30
2018-08-20T14:09:09.726Z,100320.33
2018-08-20T14:11:38.548Z,100307.59
2018-08-20T14:14:08.082Z,100315.37
2018-08-20T14:16:37.591Z,100318.66
2018-08-20T14:19:06.498Z,100316.42
2018-08-20T14:21:35.169Z,100312.57
2018-08-20T14:24:04.168Z,100316.63
2018-08-20T14:26:33.180Z,100317.69
2018-08-20T14:29:02.081Z,100315.20
2018-08-20T14:31:31.161Z,100309.62
2018-08-20T14:33:59.992Z,100310.30
2018-08-20T14:36:28.908Z,100313.52
2018-08-20T14:38:58.256Z,100321.25
2018-08-20T14:41:27.057Z,100312.83
2018-08-20T14:43:55.981Z,100304.33
2018-08-20T14:46:24.866Z,100309.95
2018-08-20T14:48:54.047Z,100300.19
2018-08-20T14:51:23.286Z,100308.50
2018-08-20T14:53:52.069Z,100311.49
2018-08-20T14:56:21.123Z,100313.38
2018-08-20T14:58:50.018Z,100314.31
2018-08-20T15:01:18.892Z,100311.31
2018-08-20T15:03:47.617Z,100311.12
2018-08-20T15:06:16.431Z,100314.39
2018-08-20T15:08:45.313Z,100305.69
2018-08-20T15:11:14.044Z,100307.58
2018-08-20T15:13:42.946Z,100309.75
2018-08-20T15:16:11.575Z,100306.64
2018-08-20T15:18:40.261Z,100305.45
2018-08-20T15:21:09.160Z,100315.45
2018-08-20T15:23:37.869Z,100310.27
2018-08-20T15:26:06.742Z,100320.35
2018-08-20T15:28:35.809Z,100312.99
2018-08-20T15:31:04.809Z,100310.67
2018-08-20T15:33:34.359Z,100314.46
2018-08-20T15:36:03.338Z,100308.77
2018-08-20T15:38:32.430Z,100314.95
2018-08-20T15:41:01.256Z,100319.28
2018-08-20T15:43:29.987Z,100311.16
2018-08-20T15:45:58.747Z,100326.17
2018-08-20T15:48:27.532Z,100323.95
2018-08-20T15:50:56.281Z,100323.69
2018-08-20T15:53:25.180Z,100317.64
2018-08-20T15:55:54.041Z,100323.17
2018-08-20T15:58:22.758Z,100322.20
2018-08-20T16:00:51.589Z,100315.28
2018-08-20T16:03:20.431Z,100321.06
2018-08-20T16:05:49.259Z,100314.13
2018-08-20T16:08:18.216Z,100313.48
2018-08-20T16:10:46.989Z,100314.47
2018-08-20T16:13:15.767Z,100311.13
2018-08-20T16:15:44.511Z,100308.37
2018-08-20T16:18:13.200Z,100307.75
2018-08-20T16:20:41.986Z,100305.28
2018-08-20T16:23:11.094Z,100306.34
2018-08-20T16:25:40.026Z,100303.56
2018-08-20T16:28:14.378Z,100311.10
2018-08-20T16:30:43.115Z,100305.74
2018-08-20T16:33:11.999Z,100308.79
2018-08-20T16:35:40.789Z,100306.81
2018-08-20T16:38:09.836Z,100307.48
2018-08-20T16:40:38.561Z,100307.11
2018-08-20T16:43:10.059Z,100312.67
2018-08-20T16:45:39.049Z,100312.50
2018-08-20T16:48:07.863Z,100302.02
2018-08-20T16:50:36.888Z,100313.42
2018-08-20T16:53:06.175Z,100312.05
2018-08-20T16:55:35.583Z,100308.41
2018-08-20T16:58:04.475Z,100313.92
2018-08-20T17:00:33.251Z,100315.28
2018-08-20T17:03:02.107Z,100250.13
2018-08-20T17:05:35.631Z,100313.12
2018-08-20T17:08:04.401Z,100316.83
2018-08-20T17:10:33.418Z,100317.31
2018-08-20T17:13:02.667Z,100327.67
2018-08-20T17:15:31.521Z,100322.15
2018-08-20T17:18:00.624Z,100320.16
2018-08-20T17:20:29.432Z,100317.65
2018-08-20T17:23:10.545Z,100324.19
2018-08-20T17:25:40.088Z,100325.03
2018-08-20T17:28:08.836Z,100319.52
2018-08-20T17:30:37.847Z,100331.23
2018-08-20T17:33:08.714Z,100326.39
2018-08-20T17:35:41.439Z,100330.91
2018-08-20T17:38:10.353Z,100332.58
2018-08-20T17:40:40.580Z,100334.39
2018-08-20T17:43:10.187Z,100333.56
2018-08-20T17:45:39.165Z,100337.55
2018-08-20T17:48:16.633Z,100336.05
2018-08-20T17:50:45.643Z,100332.34
2018-08-20T17:53:14.621Z,100338.35
2018-08-20T17:55:43.620Z,100343.83
2018-08-20T17:58:12.313Z,100337.25
2018-08-20T18:00:53.627Z,100345.11
2018-08-20T18:03:27.441Z,100342.41
2018-08-20T18:05:58.780Z,100349.09
2018-08-20T18:08:28.989Z,100351.56
2018-08-20T18:10:57.973Z,100353.37
2018-08-20T18:13:39.506Z,100360.34
2018-08-20T18:16:10.122Z,100350.61
2018-08-20T18:18:40.073Z,100355.91
2018-08-20T18:21:09.075Z,100351.05
2018-08-20T18:23:38.548Z,100354.70
2018-08-20T18:26:07.634Z,100348.13
2018-08-20T18:28:42.337Z,100358.80
2018-08-20T18:31:13.405Z,100357.77
2018-08-20T18:33:43.573Z,100363.36
2018-08-20T18:36:15.197Z,100368.85
2018-08-20T18:38:50.707Z,100361.82
2018-08-20T18:41:20.715Z,100365.61
2018-08-20T18:43:49.462Z,100366.23
2018-08-20T18:46:18.321Z,100368.34
2018-08-20T18:48:46.981Z,100363.93
2018-08-20T18:51:16.829Z,100370.36
2018-08-20T18:53:45.724Z,100375.91
2018-08-20T18:56:17.580Z,100377.83
2018-08-20T18:58:46.831Z,100372.84
2018-08-20T19:01:15.644Z,100376.23
2018-08-20T19:03:46.079Z,100376.28
2018-08-20T19:06:15.537Z,100379.52
2018-08-20T19:08:44.479Z,100374.09
2018-08-20T19:11:13.777Z,100377.36
2018-08-20T19:13:43.601Z,100378.38
2018-08-20T19:16:27.436Z,100380.20
2018-08-20T19:18:56.716Z,100383.27
2018-08-20T19:21:27.550Z,100386.66
2018-08-20T19:23:57.797Z,100384.72
2018-08-20T19:26:27.607Z,100391.39
2018-08-20T19:28:56.607Z,100400.23
2018-08-20T19:31:25.578Z,100396.59
2018-08-20T19:33:54.699Z,100397.83
2018-08-20T19:36:23.509Z,100395.53
2018-08-20T19:38:52.254Z,100403.07
2018-08-20T19:41:21.341Z,100401.92
2018-08-20T19:43:52.111Z,100413.83
2018-08-20T19:46:27.326Z,100413.69
2018-08-20T19:49:01.555Z,100419.44
2018-08-20T19:51:32.252Z,100420.62
2018-08-20T19:54:01.168Z,100417.10
2018-08-20T19:56:30.156Z,100420.09
2018-08-20T19:58:59.051Z,100421.84
2018-08-20T20:01:27.816Z,100422.39
2018-08-20T20:03:59.565Z,100428.59
2018-08-20T20:06:28.352Z,100430.04
2018-08-20T20:08:57.287Z,100426.99
2018-08-20T20:11:28.282Z,100434.63
2018-08-20T20:13:59.354Z,100427.83
2018-08-20T20:16:32.663Z,100433.31
2018-08-20T20:19:01.494Z,100434.67
2018-08-20T20:21:30.373Z,100437.73
2018-08-20T20:23:59.140Z,100437.91
2018-08-20T20:26:28.059Z,100438.04
2018-08-20T20:28:57.230Z,100436.84
2018-08-20T20:31:26.022Z,100441.66
2018-08-20T20:33:55.085Z,100441.68
2018-08-20T20:36:29.468Z,100450.41
2018-08-20T20:38:58.483Z,100442.38
2018-08-20T20:41:27.171Z,100447.94
2018-08-20T20:43:56.125Z,100447.94
2018-08-20T20:46:24.965Z,100448.09
2018-08-20T20:48:54.200Z,100448.95
2018-08-20T20:51:22.995Z,100445.61
2018-08-20T20:53:51.758Z,100448.51
2018-08-20T20:56:20.693Z,100450.88
2018-08-20T20:58:49.858Z,100447.59
2018-08-20T21:01:18.850Z,100453.53
2018-08-20T21:03:47.707Z,100459.48
2018-08-20T21:06:16.411Z,100455.30
2018-08-20T21:08:47.889Z,100459.28
2018-08-20T21:11:17.913Z,100462.45
2018-08-20T21:13:47.164Z,100462.09
2018-08-20T21:16:17.080Z,100465.25
2018-08-20T21:18:51.906Z,100463.47
2018-08-20T21:21:21.026Z,100465.30
2018-08-20T21:23:49.831Z,100473.28
2018-08-20T21:26:18.735Z,100476.65
2018-08-20T21:28:48.851Z,100484.50
2018-08-20T21:31:18.943Z,100483.53
2018-08-20T21:33:48.165Z,100483.65
2018-08-20T21:36:17.573Z,100490.91
2018-08-20T21:38:46.591Z,100495.86
2018-08-20T21:41:15.529Z,100497.55
2018-08-20T21:43:47.313Z,100499.48
2018-08-20T21:46:16.754Z,100499.02
2018-08-20T21:48:45.857Z,100504.14
2018-08-20T21:51:22.162Z,100505.36
2018-08-20T21:53:51.116Z,100507.17
2018-08-20T21:56:20.205Z,100505.97
2018-08-20T21:58:49.388Z,100512.56
2018-08-20T22:01:18.878Z,100514.38
2018-08-20T22:03:47.778Z,100512.94
2018-08-20T22:06:16.643Z,100514.63
2018-08-20T22:08:45.392Z,100508.72
2018-08-20T22:11:14.140Z,100495.61
2018-08-20T22:13:43.072Z,100505.85
2018-08-20T22:16:16.997Z,100511.48
2018-08-20T22:18:47.488Z,100513.17
2018-08-20T22:21:17.629Z,100516.99
2018-08-20T22:23:47.306Z,100513.65
2018-08-20T22:26:18.540Z,100516.77
2018-08-20T22:28:50.870Z,100527.09
2018-08-20T22:31:20.855Z,100524.20
2018-08-20T22:33:55.761Z,100522.02
2018-08-20T22:36:25.283Z,100532.59
2018-08-20T22:38:56.431Z,100529.84
2018-08-20T22:41:26.519Z,100522.23
2018-08-20T22:43:55.382Z,100528.25
2018-08-20T22:46:24.898Z,100533.66
2018-08-20T22:48:56.261Z,100529.56
2018-08-20T22:51:25.793Z,100529.91
2018-08-20T22:53:55.974Z,100536.13
2018-08-20T22:56:31.668Z,100527.23
2018-08-20T22:59:02.284Z,100531.87
2018-08-20T23:01:31.343Z,100532.81
2018-08-20T23:04:00.069Z,100538.94
2018-08-20T23:06:28.710Z,100533.16
2018-08-20T23:08:58.605Z,100540.09
2018-08-20T23:11:42.770Z,100534.80
2018-08-20T23:14:12.664Z,100529.87
2018-08-20T23:16:41.911Z,100542.36
2018-08-20T23:19:11.332Z,100547.27
2018-08-20T23:21:42.187Z,100548.83
2018-08-20T23:24:11.997Z,100552.91
2018-08-20T23:26:40.864Z,100549.52
2018-08-20T23:29:10.309Z,100559.98
2018-08-20T23:31:39.507Z,100559.75
2018-08-20T23:34:09.198Z,100556.10
2018-08-20T23:36:38.194Z,100560.05
2018-08-20T23:39:09.161Z,100562.31
2018-08-20T23:41:38.331Z,100561.47
2018-08-20T23:44:07.291Z,100567.30
2018-08-20T23:46:44.856Z,100564.36
2018-08-20T23:49:14.007Z,100561.22
2018-08-20T23:51:42.803Z,100562.98
2018-08-20T23:54:12.519Z,100562.23
2018-08-20T23:56:41.382Z,100564.38
2018-08-20T23:59:11.171Z,100567.18
